UTA145 URML-UTAA
Flight info
| Callsign | UTA145 |
|---|---|
| Flight time | N/A |
| Altitude | 35000 |
| Route | BALIP B491 BISNA M23 MARAL B450 MAMED |
| Aircraft | B738/M-SDGIJ1LRWY/SB1 |
Departure
| Time | 2026-05-06 16:42 |
|---|---|
| Airport | Makhachkala Uytash International Airport (URML) |
Arrival
| Time | N/A |
|---|---|
| Airport | Ashgabat International Airport (UTAA) |
| Time | Latitude | Longitude | Altitude | Speed | Heading |
|---|---|---|---|---|---|
| 2026-05-06 16:20 | 42.81964 | 47.65571 | 25 ft | 0 kts | 58° |
| 2026-05-06 16:34 | 42.81961 | 47.65564 | 24 ft | 2 kts | 57° |
| 2026-05-06 16:35 | 42.81952 | 47.65546 | 24 ft | 2 kts | 58° |
| 2026-05-06 16:35 | 42.81944 | 47.65529 | 24 ft | 2 kts | 57° |
| 2026-05-06 16:35 | 42.81936 | 47.65511 | 24 ft | 2 kts | 58° |
| 2026-05-06 16:35 | 42.81931 | 47.65493 | 24 ft | 2 kts | 105° |
| 2026-05-06 16:36 | 42.81940 | 47.65477 | 24 ft | 2 kts | 156° |
| 2026-05-06 16:36 | 42.81952 | 47.65469 | 24 ft | 0 kts | 146° |
| 2026-05-06 16:36 | 42.81954 | 47.65468 | 24 ft | 0 kts | 145° |
| 2026-05-06 16:38 | 42.81952 | 47.65469 | 25 ft | 2 kts | 145° |
| 2026-05-06 16:38 | 42.81917 | 47.65501 | 25 ft | 9 kts | 147° |
| 2026-05-06 16:38 | 42.81848 | 47.65574 | 25 ft | 12 kts | 137° |
| 2026-05-06 16:38 | 42.81773 | 47.65559 | 24 ft | 11 kts | 217° |
| 2026-05-06 16:39 | 42.81717 | 47.65464 | 25 ft | 13 kts | 239° |
| 2026-05-06 16:39 | 42.81669 | 47.65360 | 25 ft | 12 kts | 238° |
| 2026-05-06 16:39 | 42.81590 | 47.65325 | 25 ft | 16 kts | 147° |
| 2026-05-06 16:39 | 42.81477 | 47.65423 | 24 ft | 21 kts | 148° |
| 2026-05-06 16:40 | 42.81332 | 47.65545 | 25 ft | 27 kts | 148° |
| 2026-05-06 16:40 | 42.81160 | 47.65690 | 25 ft | 31 kts | 148° |
| 2026-05-06 16:40 | 42.80957 | 47.65863 | 24 ft | 36 kts | 149° |
| 2026-05-06 16:40 | 42.80769 | 47.66019 | 25 ft | 18 kts | 143° |
| 2026-05-06 16:41 | 42.80724 | 47.66114 | 25 ft | 9 kts | 162° |
| 2026-05-06 16:41 | 42.80711 | 47.66063 | 24 ft | 8 kts | 319° |
| 2026-05-06 16:41 | 42.80760 | 47.66021 | 24 ft | 7 kts | 328° |
| 2026-05-06 16:41 | 42.80814 | 47.65973 | 24 ft | 17 kts | 328° |
| 2026-05-06 16:42 | 42.81118 | 47.65718 | 25 ft | 83 kts | 327° |
| 2026-05-06 16:42 | 42.81773 | 47.65165 | 25 ft | 137 kts | 329° |
| 2026-05-06 16:42 | 42.82698 | 47.64393 | 196 ft | 164 kts | 328° |
| 2026-05-06 16:42 | 42.83675 | 47.63609 | 791 ft | 164 kts | 328° |
| 2026-05-06 16:43 | 42.84628 | 47.62825 | 1435 ft | 162 kts | 327° |
| 2026-05-06 16:43 | 42.85590 | 47.62000 | 2029 ft | 166 kts | 327° |
| 2026-05-06 16:43 | 42.86548 | 47.61165 | 2715 ft | 165 kts | 327° |
| 2026-05-06 16:43 | 42.87508 | 47.60354 | 3352 ft | 166 kts | 329° |
| 2026-05-06 16:44 | 42.88658 | 47.59964 | 3782 ft | 184 kts | 5° |
| 2026-05-06 16:44 | 42.89866 | 47.60759 | 4190 ft | 210 kts | 41° |
| 2026-05-06 16:44 | 42.90640 | 47.62544 | 4610 ft | 235 kts | 74° |
| 2026-05-06 16:44 | 42.90574 | 47.64824 | 5048 ft | 256 kts | 110° |
| 2026-05-06 16:45 | 42.89487 | 47.66806 | 5520 ft | 269 kts | 150° |
| 2026-05-06 16:45 | 42.87759 | 47.67598 | 6222 ft | 265 kts | 185° |
| 2026-05-06 16:45 | 42.85975 | 47.67234 | 6985 ft | 262 kts | 199° |
| 2026-05-06 16:45 | 42.84176 | 47.66723 | 7714 ft | 269 kts | 192° |
| 2026-05-06 16:46 | 42.82301 | 47.66542 | 8485 ft | 275 kts | 181° |
| 2026-05-06 16:46 | 42.80435 | 47.67148 | 9179 ft | 285 kts | 153° |
| 2026-05-06 16:46 | 42.78920 | 47.68868 | 9874 ft | 292 kts | 128° |
| 2026-05-06 16:46 | 42.77897 | 47.71310 | 10329 ft | 306 kts | 114° |
| 2026-05-06 16:47 | 42.77030 | 47.74052 | 10777 ft | 321 kts | 113° |
| 2026-05-06 16:47 | 42.76136 | 47.76870 | 11224 ft | 335 kts | 113° |
| 2026-05-06 16:47 | 42.75183 | 47.79808 | 11656 ft | 349 kts | 114° |